Time;durP1;ratioP1;P1;durP2;ratioP2;P2;SDS_P1;SDS_P2;PMS_P1;PMS_P2;Temp;Humidity;BMP_temperature;BMP_pressure;BME280_temperature;BME280_humidity;BME280_pressure;Samples;Min_cycle;Max_cycle;Signal;HPM_P1;HPM_P2
2021/12/08 00:02:16;;;;;;;15.90;9.30;;;0.90;99.90;;;;;;5071377;28;20317;-78
2021/12/08 00:04:43;;;;;;;13.40;8.07;;;1.00;99.90;;;;;;5071155;28;20244;-77
2021/12/08 00:07:09;;;;;;;16.60;8.90;;;1.00;99.90;;;;;;5071899;28;20566;-78
2021/12/08 00:14:53;;;;;;;13.60;7.47;;;1.00;99.90;;;;;;5073023;28;20220;-78
2021/12/08 00:17:19;;;;;;;10.33;7.03;;;1.00;99.90;;;;;;5055376;28;20209;-79
2021/12/08 00:19:44;;;;;;;9.97;6.03;;;1.00;99.90;;;;;;5072323;28;20233;-78
2021/12/08 00:22:10;;;;;;;10.57;6.40;;;1.10;99.90;;;;;;5054811;28;20254;-78
2021/12/08 00:24:35;;;;;;;8.57;5.80;;;1.10;99.90;;;;;;5072231;28;20193;-78
2021/12/08 00:27:02;;;;;;;8.70;6.03;;;1.20;99.90;;;;;;5053734;28;20232;-78
2021/12/08 00:29:27;;;;;;;8.57;5.80;;;1.30;99.90;;;;;;5054264;28;20250;-79
2021/12/08 00:31:53;;;;;;;9.33;5.90;;;1.30;99.90;;;;;;5072264;28;20229;-77
2021/12/08 00:34:18;;;;;;;9.10;6.30;;;1.20;99.90;;;;;;5054768;28;20185;-79
2021/12/08 00:36:48;;;;;;;9.47;5.60;;;1.30;99.90;;;;;;5053118;28;20355;-78
2021/12/08 00:39:14;;;;;;;7.83;5.13;;;1.30;99.90;;;;;;5072472;28;20655;-78
2021/12/08 00:41:40;;;;;;;8.73;5.70;;;1.30;99.90;;;;;;5070553;28;20269;-77
2021/12/08 00:44:06;;;;;;;7.60;5.23;;;1.30;99.90;;;;;;5054824;28;20212;-79
2021/12/08 00:46:32;;;;;;;9.33;5.53;;;1.20;99.90;;;;;;5054739;28;20197;-78
2021/12/08 00:48:58;;;;;;;8.90;5.40;;;1.20;99.90;;;;;;5056235;28;20250;-78
2021/12/08 00:51:24;;;;;;;7.57;5.33;;;1.10;99.90;;;;;;5076990;28;20574;-78
2021/12/08 00:53:50;;;;;;;10.50;6.03;;;1.00;99.90;;;;;;5059669;28;20177;-77
2021/12/08 00:56:16;;;;;;;11.27;6.03;;;1.10;99.90;;;;;;5058850;28;20189;-79
2021/12/08 00:58:43;;;;;;;10.13;5.97;;;1.00;99.90;;;;;;5057378;28;20225;-77
2021/12/08 01:01:09;;;;;;;9.13;6.10;;;1.00;99.90;;;;;;5076799;28;20276;-78
2021/12/08 01:03:36;;;;;;;10.70;6.40;;;0.90;99.90;;;;;;5076657;28;20711;-77
2021/12/08 01:06:03;;;;;;;9.07;6.30;;;0.90;99.90;;;;;;5058674;28;20674;-78
2021/12/08 01:08:29;;;;;;;8.57;6.27;;;0.90;99.90;;;;;;5057785;28;20272;-77
2021/12/08 01:10:59;;;;;;;11.00;6.93;;;0.90;99.90;;;;;;5076272;28;20247;-77
2021/12/08 01:13:25;;;;;;;10.90;6.63;;;0.90;99.90;;;;;;5076583;28;20264;-77
2021/12/08 01:15:53;;;;;;;9.13;6.47;;;1.00;99.90;;;;;;5058590;28;20242;-76
2021/12/08 01:18:20;;;;;;;10.27;6.90;;;1.00;99.90;;;;;;5057593;28;20223;-78
2021/12/08 01:20:47;;;;;;;10.17;5.90;;;1.00;99.90;;;;;;5059012;28;20196;-77
2021/12/08 01:23:13;;;;;;;9.00;5.80;;;1.00;99.90;;;;;;5077268;28;20716;-77
2021/12/08 01:25:39;;;;;;;11.57;5.70;;;1.00;99.90;;;;;;5078351;28;20224;-78
2021/12/08 01:28:04;;;;;;;7.60;5.33;;;1.00;99.90;;;;;;5059201;28;20274;-78
2021/12/08 01:30:30;;;;;;;8.47;5.70;;;1.10;99.90;;;;;;5059769;28;20232;-78
2021/12/08 01:32:56;;;;;;;10.63;5.60;;;1.10;99.90;;;;;;5060015;28;20189;-78
2021/12/08 01:35:23;;;;;;;7.97;5.70;;;1.10;99.90;;;;;;5060271;28;20177;-79
2021/12/08 01:37:49;;;;;;;8.40;6.00;;;1.00;99.90;;;;;;5059227;28;20217;-78
2021/12/08 01:40:17;;;;;;;11.17;6.40;;;1.00;99.90;;;;;;5076000;28;20201;-79
2021/12/08 01:42:47;;;;;;;8.70;5.60;;;1.00;99.90;;;;;;5075812;28;20208;-78
2021/12/08 01:48:07;;;;;;;8.37;5.43;;;1.00;99.90;;;;;;5072283;28;20197;-77
2021/12/08 01:50:33;;;;;;;7.67;5.50;;;1.00;99.90;;;;;;5075968;28;20632;-77
2021/12/08 01:52:59;;;;;;;10.03;5.53;;;1.10;99.90;;;;;;5057272;28;20591;-79
2021/12/08 01:55:25;;;;;;;10.17;5.80;;;1.10;99.90;;;;;;5072113;28;20193;-79
2021/12/08 01:57:51;;;;;;;8.73;5.50;;;1.00;99.90;;;;;;5072031;28;20213;-79
2021/12/08 02:00:32;;;;;;;6.43;4.40;;;1.10;99.90;;;;;;5072941;28;20197;-79
2021/12/08 02:02:58;;;;;;;9.70;5.30;;;1.10;99.90;;;;;;5063051;28;20637;-81
2021/12/08 02:05:25;;;;;;;9.17;5.53;;;1.20;99.90;;;;;;5072930;28;20177;-78
2021/12/08 02:07:51;;;;;;;5.60;4.20;;;1.20;99.90;;;;;;5072540;28;20628;-80
2021/12/08 02:10:18;;;;;;;7.30;4.70;;;1.30;99.90;;;;;;5072678;28;20216;-79
2021/12/08 02:12:44;;;;;;;6.57;4.53;;;1.30;99.90;;;;;;5054405;28;20640;-80
2021/12/08 02:15:13;;;;;;;7.70;4.63;;;1.30;99.90;;;;;;5072264;28;20340;-78
2021/12/08 02:17:40;;;;;;;9.03;4.93;;;1.20;99.90;;;;;;5052807;28;20216;-78
2021/12/08 02:20:08;;;;;;;8.00;5.10;;;1.20;99.90;;;;;;5072190;28;20331;-77
2021/12/08 02:22:34;;;;;;;9.73;5.27;;;1.20;99.90;;;;;;5071908;28;20186;-79
2021/12/08 02:25:00;;;;;;;6.93;4.67;;;1.20;99.90;;;;;;5072280;28;20281;-79
2021/12/08 02:27:25;;;;;;;8.37;5.43;;;1.20;99.90;;;;;;5071624;28;20198;-77
2021/12/08 02:29:58;;;;;;;9.00;5.07;;;1.10;99.90;;;;;;5072187;28;20208;-80
2021/12/08 02:46:37;;;;;;;11.07;5.03;;;1.20;99.90;;;;;;5054631;28;20182;-81
2021/12/08 02:48:52;;;;;;;6.23;4.97;;;1.30;99.90;;;;;;5071917;28;20208;-77
2021/12/08 02:51:20;;;;;;;8.07;4.60;;;1.30;99.90;;;;;;5052825;28;20192;-79
2021/12/08 02:53:47;;;;;;;9.20;5.97;;;1.30;99.90;;;;;;5053885;28;20182;-78
2021/12/08 02:56:13;;;;;;;9.77;4.97;;;1.30;99.90;;;;;;5071422;28;20586;-78
2021/12/08 02:58:39;;;;;;;8.07;5.20;;;1.30;99.90;;;;;;5053284;28;20217;-80
2021/12/08 03:01:08;;;;;;;7.23;4.63;;;1.40;99.90;;;;;;5053243;28;20185;-78
2021/12/08 03:03:34;;;;;;;9.83;5.63;;;1.40;99.90;;;;;;5053434;28;20619;-78
2021/12/08 03:06:00;;;;;;;9.07;5.33;;;1.40;99.90;;;;;;5054037;28;20264;-80
2021/12/08 03:08:26;;;;;;;9.20;4.90;;;1.40;99.90;;;;;;5052996;28;20237;-79
2021/12/08 03:10:52;;;;;;;9.20;5.73;;;1.40;99.90;;;;;;5070667;28;20180;-78
2021/12/08 03:13:28;;;;;;;7.40;5.03;;;1.40;99.90;;;;;;5053375;28;21123;-77
2021/12/08 03:15:53;;;;;;;9.13;5.30;;;1.40;99.90;;;;;;5070871;28;20230;-77
2021/12/08 03:18:19;;;;;;;9.13;5.17;;;1.40;99.90;;;;;;5051358;28;20214;-80
2021/12/08 03:20:46;;;;;;;6.93;4.73;;;1.40;99.90;;;;;;5051806;28;20190;-79
2021/12/08 03:23:17;;;;;;;8.80;4.50;;;1.50;99.90;;;;;;5051932;28;20181;-77
2021/12/08 03:25:54;;;;;;;7.13;5.07;;;1.50;99.90;;;;;;5068753;28;20218;-77
2021/12/08 03:28:24;;;;;;;7.83;5.17;;;1.50;99.90;;;;;;5051823;28;20220;-79
2021/12/08 03:33:19;;;;;;;7.60;5.47;;;1.50;99.90;;;;;;5069033;28;20178;-80
2021/12/08 03:35:45;;;;;;;7.27;4.80;;;1.50;99.90;;;;;;5069680;28;20182;-76
2021/12/08 03:38:10;;;;;;;6.77;4.93;;;1.50;99.90;;;;;;5070227;28;20205;-80
2021/12/08 03:40:37;;;;;;;6.80;4.37;;;1.50;99.90;;;;;;5052030;28;20275;-77
2021/12/08 03:43:03;;;;;;;11.17;4.53;;;1.50;99.90;;;;;;5069262;28;20173;-79
2021/12/08 03:45:39;;;;;;;6.43;4.47;;;1.60;99.90;;;;;;5051795;28;20209;-76
2021/12/08 03:48:08;;;;;;;7.80;4.43;;;1.60;99.90;;;;;;5051805;28;20177;-79
2021/12/08 03:50:38;;;;;;;8.03;4.90;;;1.60;99.90;;;;;;5057509;28;20192;-77
2021/12/08 03:53:05;;;;;;;6.60;4.07;;;1.60;99.90;;;;;;5069947;28;20192;-79
2021/12/08 03:55:31;;;;;;;8.00;4.73;;;1.60;99.90;;;;;;5070101;28;20189;-78
2021/12/08 03:57:56;;;;;;;6.87;4.40;;;1.60;99.90;;;;;;5069489;28;20214;-77
2021/12/08 04:00:26;;;;;;;7.23;4.67;;;1.60;99.90;;;;;;5069685;28;20177;-79
2021/12/08 04:02:52;;;;;;;9.30;4.70;;;1.70;99.90;;;;;;5070009;28;20177;-79
2021/12/08 04:05:31;;;;;;;6.83;4.47;;;1.60;99.90;;;;;;5050918;28;20186;-79
2021/12/08 04:08:03;;;;;;;6.63;5.13;;;1.60;99.90;;;;;;5068454;28;20562;-79
2021/12/08 04:10:29;;;;;;;5.80;4.60;;;1.50;99.90;;;;;;5050639;28;20655;-77
2021/12/08 04:12:56;;;;;;;8.43;5.10;;;1.50;99.90;;;;;;5068911;28;20187;-79
2021/12/08 04:15:25;;;;;;;6.77;4.90;;;1.50;99.90;;;;;;5069768;28;20210;-77
2021/12/08 04:17:53;;;;;;;7.40;4.73;;;1.50;99.90;;;;;;5069241;28;20204;-79
2021/12/08 04:20:26;;;;;;;9.20;4.83;;;1.40;99.90;;;;;;5068833;28;20223;-78
2021/12/08 04:22:54;;;;;;;7.20;4.87;;;1.40;99.90;;;;;;5068936;28;20177;-78
2021/12/08 04:25:24;;;;;;;7.10;4.63;;;1.40;99.90;;;;;;5069003;28;20639;-80
2021/12/08 04:27:54;;;;;;;10.90;4.77;;;1.30;99.90;;;;;;5069040;28;20178;-79
2021/12/08 04:30:29;;;;;;;7.53;4.67;;;1.30;99.90;;;;;;5068261;28;20193;-79
2021/12/08 04:32:55;;;;;;;8.57;5.00;;;1.30;99.90;;;;;;5067928;28;20181;-75
2021/12/08 04:35:22;;;;;;;8.17;4.57;;;1.20;99.90;;;;;;5051051;28;20189;-79
2021/12/08 04:37:52;;;;;;;8.87;5.40;;;1.20;99.90;;;;;;5050450;28;20628;-77
2021/12/08 04:40:41;;;;;;;7.33;5.27;;;1.20;99.90;;;;;;5068066;28;20240;-77
2021/12/08 04:43:21;;;;;;;10.87;5.07;;;1.20;99.90;;;;;;5065161;28;20165;-77
2021/12/08 04:46:24;;;;;;;8.63;4.77;;;1.30;99.90;;;;;;5065007;28;20686;-77
2021/12/08 04:49:20;;;;;;;7.57;5.13;;;1.30;99.90;;;;;;5064902;28;20220;-76
2021/12/08 04:52:13;;;;;;;7.00;4.80;;;1.30;99.90;;;;;;5064278;28;20181;-78
2021/12/08 05:04:10;;;;;;;8.00;5.40;;;1.30;99.90;;;;;;5036107;28;20247;-76
2021/12/08 05:06:49;;;;;;;8.90;5.37;;;1.30;99.90;;;;;;5063395;28;20188;-79
2021/12/08 05:09:23;;;;;;;10.37;6.17;;;1.30;99.90;;;;;;5064086;28;20615;-77
2021/12/08 05:12:14;;;;;;;8.47;5.03;;;1.30;99.90;;;;;;5064096;28;20197;-78
2021/12/08 05:14:45;;;;;;;10.83;5.63;;;1.30;99.90;;;;;;5047734;28;20225;-78
2021/12/08 05:17:15;;;;;;;9.60;5.70;;;1.30;99.90;;;;;;5064835;28;20680;-78
2021/12/08 05:19:43;;;;;;;9.33;5.47;;;1.30;99.90;;;;;;5061840;28;20201;-78
2021/12/08 05:22:15;;;;;;;13.90;5.70;;;1.30;99.90;;;;;;5064429;28;20221;-78
2021/12/08 05:24:45;;;;;;;8.67;5.37;;;1.30;99.90;;;;;;5063779;28;20192;-77
2021/12/08 05:27:20;;;;;;;6.97;5.13;;;1.30;99.90;;;;;;5046705;28;20546;-78
2021/12/08 05:29:53;;;;;;;8.20;5.53;;;1.30;99.90;;;;;;5064563;28;20201;-77
2021/12/08 05:32:21;;;;;;;8.47;4.33;;;1.30;99.90;;;;;;5064888;28;20193;-78
2021/12/08 05:34:47;;;;;;;7.20;4.10;;;1.30;99.90;;;;;;5056164;28;20239;-77
2021/12/08 05:37:16;;;;;;;7.77;4.90;;;1.20;99.90;;;;;;5067552;28;20253;-77
2021/12/08 05:39:43;;;;;;;7.80;4.97;;;1.20;99.90;;;;;;5067874;28;20289;-78
2021/12/08 05:42:15;;;;;;;8.47;4.67;;;1.10;99.90;;;;;;5050265;28;20188;-77
2021/12/08 05:44:41;;;;;;;7.67;4.83;;;1.10;99.90;;;;;;5068414;28;20264;-77
2021/12/08 05:47:12;;;;;;;6.63;4.17;;;1.00;99.90;;;;;;5050377;28;20194;-77
2021/12/08 05:49:38;;;;;;;9.27;4.77;;;1.00;99.90;;;;;;5067890;28;20706;-77
2021/12/08 05:52:06;;;;;;;9.03;5.17;;;0.90;99.90;;;;;;5067954;28;20189;-77
2021/12/08 05:54:35;;;;;;;7.40;4.90;;;0.90;99.90;;;;;;5067684;28;20539;-77
2021/12/08 05:57:26;;;;;;;7.23;5.40;;;0.90;99.90;;;;;;5067553;28;20209;-77
2021/12/08 05:59:53;;;;;;;10.63;5.73;;;0.90;99.90;;;;;;5067296;28;20205;-78
2021/12/08 06:02:23;;;;;;;8.73;5.63;;;0.80;99.90;;;;;;5068203;28;20242;-77
2021/12/08 06:04:49;;;;;;;8.80;5.43;;;0.80;99.90;;;;;;5067675;28;20667;-77
2021/12/08 06:07:21;;;;;;;9.00;5.80;;;0.80;99.90;;;;;;5068056;28;20729;-77
2021/12/08 06:09:51;;;;;;;8.13;5.07;;;0.80;99.90;;;;;;5064586;28;20684;-76
2021/12/08 06:12:17;;;;;;;8.43;5.67;;;0.80;99.90;;;;;;5063819;28;20276;-76
2021/12/08 06:14:43;;;;;;;10.80;7.13;;;0.80;99.90;;;;;;5064167;28;20675;-76
2021/12/08 06:17:17;;;;;;;12.70;6.90;;;0.80;99.90;;;;;;5047798;28;20574;-76
2021/12/08 06:19:46;;;;;;;12.17;6.23;;;0.80;99.90;;;;;;5048424;28;20209;-76
2021/12/08 06:22:18;;;;;;;10.73;6.57;;;0.80;99.90;;;;;;5067789;28;20257;-76
2021/12/08 06:24:45;;;;;;;11.90;7.27;;;0.80;99.90;;;;;;5067644;28;20185;-76
2021/12/08 06:27:11;;;;;;;10.03;6.67;;;0.80;99.90;;;;;;5066919;28;20548;-78
2021/12/08 06:29:38;;;;;;;11.50;7.80;;;0.70;99.90;;;;;;5066966;28;20221;-78
2021/12/08 06:32:07;;;;;;;15.53;6.87;;;0.80;99.90;;;;;;5066722;28;20193;-77
2021/12/08 06:34:34;;;;;;;9.10;5.93;;;0.80;99.90;;;;;;5067157;28;20182;-79
2021/12/08 06:37:07;;;;;;;8.07;5.50;;;0.80;99.90;;;;;;5048794;28;20205;-78
2021/12/08 06:39:42;;;;;;;9.97;5.90;;;0.80;99.90;;;;;;5066514;28;20206;-78
2021/12/08 06:42:13;;;;;;;9.83;6.20;;;0.90;99.90;;;;;;5066801;28;20184;-78
2021/12/08 06:44:43;;;;;;;9.77;6.40;;;0.90;99.90;;;;;;5066629;28;20231;-78
2021/12/08 06:47:13;;;;;;;14.77;6.90;;;0.90;99.90;;;;;;5066004;28;20196;-77
2021/12/08 06:49:39;;;;;;;13.23;6.63;;;0.90;99.90;;;;;;5066669;28;20577;-78
2021/12/08 06:52:14;;;;;;;10.60;6.77;;;0.90;99.90;;;;;;5067199;28;20185;-77
2021/12/08 06:54:51;;;;;;;10.37;6.70;;;0.90;99.90;;;;;;5066967;28;20195;-78
2021/12/08 06:57:36;;;;;;;13.83;7.17;;;0.80;99.90;;;;;;5047970;28;20209;-77
2021/12/08 07:00:33;;;;;;;12.10;7.47;;;0.90;99.90;;;;;;5065609;28;20354;-77
2021/12/08 07:03:08;;;;;;;10.53;6.83;;;0.90;99.90;;;;;;5055973;28;20207;-77
2021/12/08 07:06:03;;;;;;;14.13;7.87;;;0.90;99.90;;;;;;5048522;28;20236;-77
2021/12/08 07:08:23;;;;;;;10.77;6.60;;;0.80;99.90;;;;;;5066029;28;20202;-77
2021/12/08 07:10:56;;;;;;;10.77;6.97;;;0.90;99.90;;;;;;5066116;28;20186;-77
2021/12/08 07:13:25;;;;;;;15.03;7.20;;;0.90;99.90;;;;;;5066852;28;20260;-77
2021/12/08 07:16:00;;;;;;;11.83;6.77;;;0.90;99.90;;;;;;5066695;28;20268;-77
2021/12/08 07:18:39;;;;;;;11.40;6.87;;;0.90;99.90;;;;;;5066461;28;20258;-76
2021/12/08 07:21:07;;;;;;;10.83;6.60;;;0.90;99.90;;;;;;5057385;28;20179;-78
2021/12/08 07:23:46;;;;;;;11.70;7.00;;;1.00;99.90;;;;;;5066101;28;20717;-76
2021/12/08 07:26:19;;;;;;;14.90;7.70;;;1.00;99.90;;;;;;5065806;28;20675;-76
2021/12/08 07:28:46;;;;;;;13.80;7.50;;;1.00;99.90;;;;;;5064316;28;20264;-76
2021/12/08 07:31:29;;;;;;;13.37;7.17;;;1.00;99.90;;;;;;5065467;28;20239;-77
2021/12/08 07:34:02;;;;;;;10.90;6.67;;;0.90;99.90;;;;;;5047261;28;20181;-77
2021/12/08 07:36:29;;;;;;;11.83;6.60;;;1.00;99.90;;;;;;5065204;28;20181;-77
2021/12/08 07:38:56;;;;;;;9.63;6.23;;;1.00;99.90;;;;;;5047251;28;20197;-76
2021/12/08 07:41:30;;;;;;;14.07;7.10;;;1.00;99.90;;;;;;5061887;28;20251;-79
2021/12/08 07:43:58;;;;;;;9.03;5.93;;;1.00;99.90;;;;;;5042848;28;20188;-77
2021/12/08 07:46:32;;;;;;;11.27;6.10;;;1.00;99.90;;;;;;5061154;28;20633;-77
2021/12/08 07:49:12;;;;;;;11.07;6.20;;;1.00;99.90;;;;;;5061548;28;20205;-77
2021/12/08 07:51:41;;;;;;;9.67;5.87;;;1.00;99.90;;;;;;5044557;28;20616;-76
2021/12/08 07:54:08;;;;;;;10.30;5.57;;;1.10;99.90;;;;;;5050453;28;20185;-78
2021/12/08 07:56:35;;;;;;;8.80;5.70;;;1.10;99.90;;;;;;5060952;28;20217;-77
2021/12/08 07:59:05;;;;;;;9.43;5.70;;;1.10;99.90;;;;;;5059837;28;20228;-77
2021/12/08 08:01:37;;;;;;;8.97;5.70;;;1.20;99.90;;;;;;5046949;28;20232;-78
2021/12/08 08:04:06;;;;;;;9.30;5.40;;;1.10;99.90;;;;;;5043029;28;20669;-77
2021/12/08 08:06:39;;;;;;;13.77;5.83;;;1.10;99.90;;;;;;5061220;28;20206;-78
2021/12/08 08:09:08;;;;;;;9.70;5.47;;;1.10;99.90;;;;;;5062840;28;20213;-77
2021/12/08 08:11:40;;;;;;;11.60;6.10;;;1.10;99.90;;;;;;5064507;28;20181;-77
2021/12/08 08:14:09;;;;;;;13.37;6.43;;;1.10;99.90;;;;;;5064347;28;20238;-78
2021/12/08 08:16:37;;;;;;;10.13;6.30;;;1.00;99.90;;;;;;5044314;28;20203;-77
2021/12/08 08:19:10;;;;;;;11.67;6.43;;;1.00;99.90;;;;;;5061297;28;20212;-77
2021/12/08 08:21:40;;;;;;;11.37;7.07;;;1.10;99.90;;;;;;5046049;28;20178;-77
2021/12/08 08:24:06;;;;;;;11.30;6.73;;;1.10;99.90;;;;;;5044728;28;20180;-77
2021/12/08 08:26:34;;;;;;;12.23;7.17;;;1.10;99.90;;;;;;5063858;28;20189;-77
2021/12/08 08:29:00;;;;;;;11.37;6.90;;;1.10;99.90;;;;;;5064467;28;20213;-77
2021/12/08 08:31:36;;;;;;;9.07;6.70;;;1.10;99.90;;;;;;5064172;28;20196;-78
2021/12/08 08:34:02;;;;;;;12.57;7.00;;;1.10;99.90;;;;;;5065021;28;20206;-77
2021/12/08 08:36:32;;;;;;;10.27;6.27;;;1.10;99.90;;;;;;5062851;28;20181;-77
2021/12/08 08:39:18;;;;;;;8.63;5.83;;;1.20;99.90;;;;;;5058690;28;20266;-77
2021/12/08 08:42:06;;;;;;;12.23;6.83;;;1.30;99.90;;;;;;5059546;28;20173;-79
2021/12/08 08:44:36;;;;;;;11.50;6.50;;;1.30;99.90;;;;;;5053983;28;20232;-76
2021/12/08 08:47:07;;;;;;;8.93;5.60;;;1.40;99.90;;;;;;5060974;28;20174;-78
2021/12/08 08:49:35;;;;;;;10.23;5.43;;;1.40;99.90;;;;;;5041516;28;20494;-77
2021/12/08 08:52:06;;;;;;;9.23;5.53;;;1.40;99.90;;;;;;5060158;28;20800;-77
2021/12/08 08:54:37;;;;;;;8.40;5.83;;;1.40;99.90;;;;;;5042589;28;20185;-77
2021/12/08 08:57:08;;;;;;;9.33;5.60;;;1.50;99.90;;;;;;5042581;28;20264;-76
2021/12/08 08:59:45;;;;;;;11.03;5.57;;;1.50;99.90;;;;;;5060490;28;20794;-75
2021/12/08 09:02:17;;;;;;;11.87;5.10;;;1.40;99.90;;;;;;5043374;28;20536;-76
2021/12/08 09:04:48;;;;;;;7.97;4.57;;;1.50;99.90;;;;;;5044568;28;20663;-77
2021/12/08 09:07:32;;;;;;;6.53;4.73;;;1.60;99.90;;;;;;5062770;28;20181;-77
2021/12/08 09:10:03;;;;;;;7.37;4.30;;;1.60;99.90;;;;;;5063085;28;20224;-77
2021/12/08 09:12:48;;;;;;;9.10;4.97;;;1.70;99.90;;;;;;5048485;28;20496;-76
2021/12/08 09:15:16;;;;;;;9.13;4.97;;;1.70;99.90;;;;;;5066106;28;20630;-77
2021/12/08 09:18:01;;;;;;;8.37;4.90;;;1.70;99.90;;;;;;5065824;28;20231;-76
2021/12/08 09:20:59;;;;;;;7.70;4.33;;;1.70;99.90;;;;;;5066237;28;20699;-78
2021/12/08 09:23:31;;;;;;;5.13;3.90;;;1.70;99.90;;;;;;5065495;28;20522;-76
2021/12/08 09:26:05;;;;;;;6.30;4.03;;;1.70;99.90;;;;;;5065843;28;20182;-75
2021/12/08 09:28:35;;;;;;;6.47;4.00;;;1.80;99.90;;;;;;5065514;28;20197;-79
2021/12/08 09:31:18;;;;;;;8.90;4.00;;;1.80;99.90;;;;;;5047672;28;20709;-77
2021/12/08 09:33:53;;;;;;;8.03;4.37;;;1.80;99.90;;;;;;5065955;28;20683;-77
2021/12/08 09:36:34;;;;;;;7.80;4.57;;;1.80;99.90;;;;;;5047641;28;20181;-76
2021/12/08 09:39:14;;;;;;;5.93;4.00;;;1.80;99.90;;;;;;5065417;28;20247;-79
2021/12/08 09:41:45;;;;;;;6.97;3.87;;;1.70;99.90;;;;;;5065595;28;20268;-78
2021/12/08 09:44:15;;;;;;;6.27;4.10;;;1.90;99.90;;;;;;5065547;28;20181;-77
2021/12/08 09:46:44;;;;;;;5.67;3.47;;;1.90;99.90;;;;;;5065252;28;20264;-75
2021/12/08 09:49:12;;;;;;;8.17;4.10;;;2.00;99.90;;;;;;5065591;28;20608;-77
2021/12/08 09:51:39;;;;;;;7.37;4.03;;;2.00;99.90;;;;;;5047141;28;20193;-79
2021/12/08 09:54:05;;;;;;;4.30;3.20;;;2.10;99.90;;;;;;5065491;28;20261;-77
2021/12/08 09:56:33;;;;;;;5.27;3.87;;;2.00;99.90;;;;;;5065263;28;20188;-75
2021/12/08 09:58:59;;;;;;;6.07;3.43;;;2.10;99.90;;;;;;5047133;28;20221;-77
2021/12/08 10:01:26;;;;;;;5.97;4.30;;;2.10;99.90;;;;;;5065820;28;20180;-79
2021/12/08 10:03:54;;;;;;;6.43;3.93;;;2.10;99.90;;;;;;5064069;28;20178;-76
2021/12/08 10:06:21;;;;;;;6.50;3.90;;;2.20;99.90;;;;;;5056672;28;20734;-77
2021/12/08 10:08:48;;;;;;;7.10;4.10;;;2.20;99.90;;;;;;5063134;28;20221;-78
2021/12/08 10:11:16;;;;;;;5.53;3.80;;;2.30;99.90;;;;;;5065984;28;20182;-78
2021/12/08 10:13:42;;;;;;;5.40;4.17;;;2.30;99.90;;;;;;5062739;28;20204;-78
2021/12/08 10:16:08;;;;;;;8.00;4.70;;;2.40;99.90;;;;;;5049234;28;20693;-78
2021/12/08 10:18:35;;;;;;;19.37;10.37;;;2.40;99.90;;;;;;5065481;28;20217;-78
2021/12/08 10:21:01;;;;;;;24.27;14.53;;;2.40;99.90;;;;;;5045911;28;20597;-77
2021/12/08 10:23:32;;;;;;;42.83;19.83;;;2.50;99.90;;;;;;5064603;28;20200;-79
2021/12/08 10:26:00;;;;;;;23.57;11.60;;;2.40;99.90;;;;;;5040773;28;20781;-78
2021/12/08 10:28:30;;;;;;;20.50;11.57;;;2.30;99.90;;;;;;5061544;28;20208;-77
2021/12/08 10:31:08;;;;;;;24.53;13.13;;;2.30;99.90;;;;;;5061271;28;20294;-78
2021/12/08 10:34:04;;;;;;;15.37;9.37;;;2.30;99.90;;;;;;5048152;28;20715;-79
2021/12/08 10:39:22;;;;;;;5.87;4.17;;;2.30;99.90;;;;;;5067864;28;20212;-78
2021/12/08 10:42:02;;;;;;;20.00;10.47;;;2.30;99.90;;;;;;5066094;28;20190;-77
2021/12/08 10:44:42;;;;;;;6.87;4.37;;;2.30;99.90;;;;;;5063220;28;20238;-77
2021/12/08 10:47:09;;;;;;;5.27;4.47;;;2.30;99.90;;;;;;5067591;28;20191;-79
2021/12/08 10:55:11;;;;;;;6.23;4.50;;;2.30;99.90;;;;;;5064162;28;20192;-76
2021/12/08 10:57:37;;;;;;;7.60;4.67;;;2.30;99.90;;;;;;5061929;28;20220;-77
2021/12/08 11:00:06;;;;;;;7.77;4.27;;;2.30;99.90;;;;;;5084179;28;20218;-79
2021/12/08 11:02:55;;;;;;;7.50;4.30;;;2.30;99.90;;;;;;5064934;28;20189;-78
2021/12/08 11:05:24;;;;;;;6.93;4.13;;;2.40;99.90;;;;;;5059156;28;20367;-79
2021/12/08 11:08:02;;;;;;;9.40;4.93;;;2.40;99.90;;;;;;5049118;28;20197;-78
2021/12/08 11:10:29;;;;;;;6.97;4.67;;;2.50;99.90;;;;;;5061605;28;20221;-79
2021/12/08 11:12:57;;;;;;;7.40;4.63;;;2.60;99.90;;;;;;5044954;28;20216;-79
2021/12/08 11:15:24;;;;;;;7.53;4.27;;;2.70;99.90;;;;;;5055833;28;20196;-81
2021/12/08 11:18:14;;;;;;;7.50;4.30;;;2.70;99.90;;;;;;5041717;28;20381;-81
2021/12/08 11:21:03;;;;;;;5.93;4.03;;;2.80;99.90;;;;;;5041610;28;20284;-76
2021/12/08 11:23:48;;;;;;;5.47;4.27;;;2.90;99.90;;;;;;5061016;28;20182;-77
2021/12/08 11:26:19;;;;;;;6.60;3.50;;;3.00;99.90;;;;;;5034620;28;20185;-78
2021/12/08 11:28:58;;;;;;;9.23;4.10;;;3.00;99.90;;;;;;5056790;28;20296;-79
2021/12/08 11:31:27;;;;;;;6.80;4.00;;;3.20;99.90;;;;;;5066347;28;20185;-80
2021/12/08 11:34:00;;;;;;;6.00;3.77;;;3.10;99.90;;;;;;5063994;28;20200;-80
2021/12/08 11:36:27;;;;;;;4.80;3.33;;;3.10;99.90;;;;;;5047517;28;20187;-79
2021/12/08 11:38:53;;;;;;;5.63;3.37;;;3.00;99.90;;;;;;5044209;28;20267;-80
2021/12/08 11:41:36;;;;;;;5.90;3.77;;;2.90;99.90;;;;;;5049416;28;20181;-77
2021/12/08 11:44:08;;;;;;;5.17;2.97;;;3.00;99.90;;;;;;5032815;28;20193;-78
2021/12/08 11:46:42;;;;;;;7.90;3.87;;;3.00;99.90;;;;;;5041706;28;20185;-76
2021/12/08 11:49:09;;;;;;;8.33;4.83;;;3.10;99.90;;;;;;5062915;28;20204;-80
2021/12/08 11:52:02;;;;;;;11.10;6.40;;;3.20;99.90;;;;;;5045240;28;20654;-79
2021/12/08 11:54:38;;;;;;;9.13;5.43;;;3.20;99.90;;;;;;5064412;28;20211;-79
2021/12/08 11:57:10;;;;;;;8.20;5.20;;;3.10;99.90;;;;;;5063388;28;20219;-78
2021/12/08 11:59:59;;;;;;;8.27;5.60;;;3.00;99.90;;;;;;5063665;28;20729;-78
2021/12/08 12:02:29;;;;;;;9.13;5.57;;;3.00;99.90;;;;;;5044598;28;20189;-77
2021/12/08 12:04:56;;;;;;;10.83;6.53;;;3.10;99.90;;;;;;5044639;28;20185;-77
2021/12/08 12:07:22;;;;;;;8.90;4.73;;;3.10;99.90;;;;;;5063063;28;20573;-77
2021/12/08 12:09:49;;;;;;;7.93;5.33;;;3.10;99.90;;;;;;5045220;28;20231;-79
2021/12/08 12:12:16;;;;;;;4.90;4.00;;;3.20;99.90;;;;;;5045380;28;20185;-78
2021/12/08 12:14:42;;;;;;;7.10;4.10;;;3.10;99.90;;;;;;5045043;28;20713;-75
2021/12/08 12:17:08;;;;;;;5.03;3.50;;;3.20;99.90;;;;;;5063480;28;20213;-76
2021/12/08 12:19:45;;;;;;;5.10;3.43;;;3.30;99.90;;;;;;5044866;28;20639;-79
2021/12/08 12:22:27;;;;;;;4.90;3.67;;;3.30;99.90;;;;;;5063371;28;20867;-77
2021/12/08 12:25:16;;;;;;;5.30;3.40;;;3.30;99.90;;;;;;5045546;28;20199;-79
2021/12/08 12:27:59;;;;;;;5.30;3.87;;;3.30;99.90;;;;;;5063141;28;20193;-79
2021/12/08 12:30:51;;;;;;;7.77;4.63;;;3.30;99.90;;;;;;5063873;28;20181;-80
2021/12/08 12:33:22;;;;;;;11.03;6.50;;;3.40;99.90;;;;;;5064214;28;20197;-79
2021/12/08 12:35:54;;;;;;;19.27;10.07;;;3.30;99.90;;;;;;5045250;28;20491;-76
2021/12/08 12:38:40;;;;;;;19.03;9.57;;;3.30;99.90;;;;;;5044416;28;20327;-78
2021/12/08 12:41:07;;;;;;;22.97;11.40;;;3.30;99.90;;;;;;5044069;28;20204;-81
2021/12/08 12:43:38;;;;;;;11.97;7.77;;;3.30;99.90;;;;;;5045611;28;20261;-77
2021/12/08 12:46:15;;;;;;;7.83;6.13;;;3.20;99.90;;;;;;5060818;28;20182;-75
2021/12/08 12:48:42;;;;;;;32.00;18.50;;;3.20;99.90;;;;;;5068819;28;20228;-79
2021/12/08 12:51:10;;;;;;;7.93;5.90;;;3.20;99.90;;;;;;5072557;28;20205;-79
2021/12/08 12:53:39;;;;;;;7.50;4.27;;;3.20;99.90;;;;;;5079960;28;20205;-74
2021/12/08 12:56:34;;;;;;;6.30;4.50;;;3.30;99.90;;;;;;5083279;28;20177;-74
2021/12/08 12:59:14;;;;;;;6.33;4.20;;;3.40;99.90;;;;;;5081763;28;20221;-78
2021/12/08 13:01:46;;;;;;;19.97;10.63;;;3.40;99.90;;;;;;5065660;28;20200;-77
2021/12/08 13:04:21;;;;;;;10.33;5.67;;;3.40;99.90;;;;;;5083823;28;20182;-78
2021/12/08 13:06:59;;;;;;;9.23;5.33;;;3.40;99.90;;;;;;5063843;28;20191;-80
2021/12/08 13:09:37;;;;;;;5.07;3.47;;;3.40;99.90;;;;;;5052771;28;20663;-81
2021/12/08 13:12:28;;;;;;;5.53;3.27;;;3.30;99.90;;;;;;5067802;28;20235;-79
2021/12/08 13:15:14;;;;;;;7.70;3.60;;;3.40;99.90;;;;;;5037064;28;20190;-76
2021/12/08 13:18:06;;;;;;;5.70;3.37;;;3.30;99.90;;;;;;5048396;28;20209;-80
2021/12/08 13:20:58;;;;;;;5.07;3.30;;;3.30;99.90;;;;;;5047819;28;20189;-81
2021/12/08 13:23:28;;;;;;;5.97;3.70;;;3.30;99.90;;;;;;5065932;28;20174;-81
2021/12/08 13:26:08;;;;;;;4.33;3.00;;;3.30;99.90;;;;;;5047996;28;20261;-80
2021/12/08 13:28:54;;;;;;;3.63;3.10;;;3.20;99.90;;;;;;5047563;28;21186;-78
2021/12/08 13:31:36;;;;;;;5.43;3.23;;;3.20;99.90;;;;;;5066033;28;20733;-81
2021/12/08 13:34:10;;;;;;;5.10;3.13;;;3.20;99.90;;;;;;5048797;28;20177;-80
2021/12/08 13:36:38;;;;;;;6.07;3.53;;;3.10;99.90;;;;;;5064887;28;20189;-79
2021/12/08 13:39:09;;;;;;;4.67;3.10;;;3.10;99.90;;;;;;5047217;28;20461;-78
2021/12/08 13:41:37;;;;;;;7.03;3.50;;;3.10;99.90;;;;;;5065017;28;20192;-76
2021/12/08 13:44:24;;;;;;;5.37;3.93;;;3.00;99.90;;;;;;5065583;28;20176;-79
2021/12/08 13:46:53;;;;;;;5.23;3.10;;;3.00;99.90;;;;;;5064011;28;20232;-81
2021/12/08 13:49:27;;;;;;;8.47;4.00;;;3.00;99.90;;;;;;5047059;28;20194;-80
2021/12/08 13:52:07;;;;;;;6.43;4.47;;;3.10;99.90;;;;;;5047072;28;20177;-78
2021/12/08 13:54:37;;;;;;;6.07;4.27;;;3.00;99.90;;;;;;5065414;28;20188;-79
2021/12/08 13:57:25;;;;;;;6.43;4.30;;;3.00;99.90;;;;;;5049459;28;20209;-79
2021/12/08 13:59:57;;;;;;;7.27;4.07;;;3.00;99.90;;;;;;5050325;28;20229;-78